Tropical Cyclones
[Index]
Main Index Home Page Stock Weather Photos Extreme Storms Discussion Storm News and Storm Chasing Reports Tropical Cyclones / Hurricanes / Typhoons Weather Data and Links Wild Fires / Bushfires Weather Observation Techniques Weather Picture Catalogue Tornado Pictures and Reports Stock Video Footage and DVDs for sale
Season 1996-1997 Tropical Cyclone RACHEL Track Map
Season 1996-1997 Summaries: [BoM-AU] [JTWC-AU] [JTWC-SIO] [JTWC-SPAC] [JTWC-SH]
<<- Previous TC | BoM 1996-1997 Season | Next TC ->>

click for intensity scale information  Lat/long Grid: Show Hide

 Date Labels: Show Hide

Bureau of Meteorology Tropical Cyclone Data

Name: RACHEL
Number: 798 / 199697_07

02 Jan 1997 21:00 UTC to 10 Jan 1997 01:00 UTC

    date/time    lat    long    hPa   cat  kts
1997-01-02 21   11.7   129.9    992    1                
1997-01-03 00   12.1   129.5    990    1                
1997-01-03 06   12.9   128.3    988    1                
1997-01-03 12   13.4   127.3    986    1                
1997-01-03 15   13.7   127.4    984    2                
1997-01-03 18   13.9   127.1    982    2                
1997-01-03 22   13.9   126.5    985    2    47          
1997-01-04 00   14.2   126.3    988    1                
1997-01-04 01   14.3   126.2    988    1    45          
1997-01-04 06   14.7   125.5    992    1                
1997-01-04 09   15.0   125.0    994    1                
1997-01-04 13   15.7   124.6    995    1    35          
1997-01-05 01   16.4   122.8    992    1    39          
1997-01-05 04   16.8   122.4    992    1    39          
1997-01-05 07   17.0   122.1    990    1    41          
1997-01-05 10   17.1   121.9    990    1    41          
1997-01-05 13   17.2   121.7    988    1    45          
1997-01-05 16   17.3   121.5    986    1    47          
1997-01-05 19   17.5   121.3    985    2    47          
1997-01-05 22   17.7   121.1    980    2    54          
1997-01-06 01   17.8   120.7    975    2    60          
1997-01-06 04   18.0   120.4    970    3    66          
1997-01-06 07   18.2   120.2    965    3    70          
1997-01-06 10   18.3   120.0    965    3    70          
1997-01-06 13   18.5   119.8    965    3    70          
1997-01-06 16   18.8   119.5    965    3    70          
1997-01-06 19   19.1   119.3    965    3    70          
1997-01-06 22   19.4   119.0    965    3    70          
1997-01-07 01   19.6   118.6    965    3    70          
1997-01-07 04   19.8   118.5    965    3    70          
1997-01-07 07   20.1   118.6    970    3    66          
1997-01-07 08   20.3   118.6    970    3    66          
1997-01-07 10   20.6   118.6    975    2    60          
1997-01-07 13   21.0   118.6    978    2    56          
1997-01-07 16   21.4   118.6    980    2    54          
1997-01-07 19   21.8   118.6    985    2    47          
1997-01-07 22   22.1   118.7    988    1    45          
1997-01-08 01   22.5   118.8    990    1    41          
1997-01-08 04   22.9   118.9    990    1    41          
1997-01-08 07   23.3   119.0    993    1    37          
1997-01-08 10   23.8   119.1    995    1    35          
1997-01-08 13   24.3   119.2    995    1    35          
1997-01-08 16   24.7   119.4    995    1    35          
1997-01-08 19   25.1   119.6    995    1    35          
1997-01-08 22   25.4   119.9    997         31          
1997-01-09 01   25.7   120.3    997         31          
1997-01-09 07   26.1   121.0    998         29          
1997-01-09 13   26.6   121.7   1002         23          
1997-01-10 01   27.5   123.0   1003         21          
Winds are 10-min average.

Tropical cyclone tracks developed by Michael Bath using data from the Bureau of Meteorology and Google Maps.


[Australian Severe Weather index] [Copyright Notice] [Email Contacts] [Search This Site] [Privacy Policy]
Document: tropical_cyclone_rachel.htm Updated: 30 May 2013